createdAt,value
2018-07-22T00:00:11.972Z,98629.44
2018-07-22T00:02:41.400Z,98625.88
2018-07-22T00:05:10.464Z,98621.83
2018-07-22T00:07:39.763Z,98622.53
2018-07-22T00:10:26.539Z,98623.35
2018-07-22T00:12:55.584Z,98622.84
2018-07-22T00:15:24.596Z,98615.13
2018-07-22T00:17:53.635Z,98621.41
2018-07-22T00:20:22.692Z,98618.22
2018-07-22T00:22:51.745Z,98613.87
2018-07-22T00:25:20.804Z,98612.03
2018-07-22T00:27:49.884Z,98615.00
2018-07-22T00:30:18.877Z,98615.20
2018-07-22T00:32:47.869Z,98609.59
2018-07-22T00:35:16.881Z,98610.42
2018-07-22T00:37:45.847Z,98611.73
2018-07-22T00:40:14.835Z,98609.39
2018-07-22T00:42:43.877Z,98612.86
2018-07-22T00:45:14.864Z,98607.06
2018-07-22T00:47:43.851Z,98606.77
2018-07-22T00:50:12.849Z,98607.74
2018-07-22T00:52:41.868Z,98605.16
2018-07-22T00:55:10.831Z,98604.21
2018-07-22T00:57:39.808Z,98605.44
2018-07-22T01:00:09.354Z,98606.52
2018-07-22T01:02:38.341Z,98611.50
2018-07-22T01:05:07.472Z,98607.72
2018-07-22T01:07:36.466Z,98610.35
2018-07-22T01:10:05.599Z,98609.50
2018-07-22T01:12:34.613Z,98615.06
2018-07-22T01:15:03.781Z,98613.45
2018-07-22T01:17:32.788Z,98606.66
2018-07-22T01:20:01.787Z,98616.70
2018-07-22T01:22:30.768Z,98616.08
2018-07-22T01:24:59.810Z,98617.14
2018-07-22T01:27:28.850Z,98618.12
2018-07-22T01:29:57.895Z,98616.21
2018-07-22T01:32:26.900Z,98625.11
2018-07-22T01:34:55.860Z,98625.41
2018-07-22T01:37:24.905Z,98618.58
2018-07-22T01:39:53.933Z,98621.67
2018-07-22T01:42:23.001Z,98626.22
2018-07-22T01:44:52.025Z,98623.23
2018-07-22T01:47:21.129Z,98614.71
2018-07-22T01:49:50.219Z,98618.76
2018-07-22T01:52:19.236Z,98621.06
2018-07-22T01:54:48.271Z,98621.78
2018-07-22T01:57:17.292Z,98619.20
2018-07-22T01:59:46.337Z,98629.16
2018-07-22T02:02:15.353Z,98621.45
2018-07-22T02:04:44.392Z,98617.78
2018-07-22T02:07:13.413Z,98616.57
2018-07-22T02:09:42.465Z,98619.02
2018-07-22T02:12:11.436Z,98618.22
2018-07-22T02:14:40.391Z,98619.83
2018-07-22T02:17:09.390Z,98619.83
2018-07-22T02:19:38.379Z,98624.71
2018-07-22T02:22:07.441Z,98623.50
2018-07-22T02:24:36.402Z,98613.78
2018-07-22T02:27:05.445Z,98615.73
2018-07-22T02:29:34.399Z,98616.75
2018-07-22T02:32:03.427Z,98622.02
2018-07-22T02:34:32.399Z,98619.98
2018-07-22T02:37:01.474Z,98625.01
2018-07-22T02:39:30.444Z,98620.33
2018-07-22T02:41:59.539Z,98620.33
2018-07-22T02:44:28.512Z,98627.00
2018-07-22T02:46:57.463Z,98618.09
2018-07-22T02:49:26.510Z,98621.74
2018-07-22T02:51:55.496Z,98625.50
2018-07-22T02:54:24.492Z,98618.16
2018-07-22T02:56:53.464Z,98620.23
2018-07-22T02:59:22.503Z,98624.72
2018-07-22T03:01:51.557Z,98625.41
2018-07-22T03:04:20.532Z,98628.23
2018-07-22T03:06:49.592Z,98622.77
2018-07-22T03:09:18.629Z,98630.77
2018-07-22T03:11:47.616Z,98619.94
2018-07-22T03:14:16.597Z,98624.82
2018-07-22T03:16:45.636Z,98623.26
2018-07-22T03:19:14.591Z,98628.61
2018-07-22T03:21:43.688Z,98624.66
2018-07-22T03:24:12.672Z,98627.59
2018-07-22T03:26:41.645Z,98631.11
2018-07-22T03:29:10.682Z,98630.23
2018-07-22T03:31:39.656Z,98625.30
2018-07-22T03:34:08.929Z,98627.64
2018-07-22T03:36:37.891Z,98627.16
2018-07-22T03:39:09.291Z,98630.47
2018-07-22T03:41:38.333Z,98628.47
2018-07-22T03:44:07.544Z,98630.83
2018-07-22T03:46:36.572Z,98629.28
2018-07-22T03:49:05.757Z,98625.25
2018-07-22T03:51:34.725Z,98625.59
2018-07-22T03:54:03.715Z,98627.84
2018-07-22T03:56:32.714Z,98629.92
2018-07-22T03:59:01.696Z,98632.56
2018-07-22T04:01:30.788Z,98630.30
2018-07-22T04:03:59.854Z,98629.81
2018-07-22T04:06:28.856Z,98630.24
2018-07-22T04:08:57.827Z,98628.92
2018-07-22T04:11:26.865Z,98624.78
2018-07-22T04:13:55.867Z,98617.99
2018-07-22T04:16:24.852Z,98616.91
2018-07-22T04:18:54.611Z,98616.19
2018-07-22T04:21:24.646Z,98620.66
2018-07-22T04:23:53.644Z,98615.30
2018-07-22T04:26:22.944Z,98616.44
2018-07-22T04:28:52.384Z,98617.00
2018-07-22T04:31:21.564Z,98613.52
2018-07-22T04:33:50.785Z,98615.78
2018-07-22T04:36:19.833Z,98609.92
2018-07-22T04:38:48.900Z,98612.05
2018-07-22T04:41:17.936Z,98604.66
2018-07-22T04:43:46.892Z,98597.67
2018-07-22T04:46:15.994Z,98601.34
2018-07-22T04:48:44.944Z,98600.11
2018-07-22T04:51:14.065Z,98597.89
2018-07-22T04:53:43.032Z,98606.92
2018-07-22T04:56:12.009Z,98609.16
2018-07-22T04:58:41.066Z,98607.46
2018-07-22T05:01:10.112Z,98606.23
2018-07-22T05:03:39.112Z,98598.30
2018-07-22T05:06:08.091Z,98599.28
2018-07-22T05:08:37.068Z,98596.02
2018-07-22T05:11:06.173Z,98588.16
2018-07-22T05:13:35.220Z,98589.66
2018-07-22T05:16:04.253Z,98590.73
2018-07-22T05:18:33.276Z,98593.87
2018-07-22T05:21:02.347Z,98595.95
2018-07-22T05:23:31.321Z,98593.70
2018-07-22T05:26:00.304Z,98602.09
2018-07-22T05:28:29.349Z,98604.25
2018-07-22T05:30:58.335Z,98602.93
2018-07-22T05:33:27.333Z,98599.81
2018-07-22T05:35:56.455Z,98603.77
2018-07-22T05:38:25.501Z,98602.48
2018-07-22T05:40:54.473Z,98595.92
2018-07-22T05:43:23.568Z,98597.20
2018-07-22T05:45:52.617Z,98597.17
2018-07-22T05:48:21.681Z,98593.13
2018-07-22T05:50:50.724Z,98600.21
2018-07-22T05:53:19.704Z,98596.14
2018-07-22T05:55:48.728Z,98589.55
2018-07-22T05:58:17.820Z,98595.69
2018-07-22T06:00:46.916Z,98594.47
2018-07-22T06:03:15.899Z,98599.29
2018-07-22T06:05:44.916Z,98593.15
2018-07-22T06:08:13.893Z,98584.69
2018-07-22T06:10:42.891Z,98586.17
2018-07-22T06:13:11.933Z,98585.97
2018-07-22T06:15:40.907Z,98577.13
2018-07-22T06:18:09.986Z,98574.83
2018-07-22T06:20:39.192Z,98567.82
2018-07-22T06:23:08.195Z,98565.31
2018-07-22T06:25:37.171Z,98565.30
2018-07-22T06:28:06.433Z,98559.86
2018-07-22T06:30:35.480Z,98553.72
2018-07-22T06:33:04.533Z,98561.34
2018-07-22T06:35:33.572Z,98552.63
2018-07-22T06:38:02.561Z,98551.29
2018-07-22T06:40:32.472Z,98557.95
2018-07-22T06:43:01.577Z,98561.98
2018-07-22T06:45:30.564Z,98553.28
2018-07-22T06:47:59.721Z,98565.84
2018-07-22T06:50:28.741Z,98564.40
2018-07-22T06:52:57.759Z,98560.59
2018-07-22T06:55:26.845Z,98561.13
2018-07-22T06:57:55.810Z,98560.49
2018-07-22T07:00:24.899Z,98563.34
2018-07-22T07:02:53.872Z,98563.60
2018-07-22T07:05:23.045Z,98566.70
2018-07-22T07:07:52.051Z,98569.25
2018-07-22T07:10:21.063Z,98563.09
2018-07-22T07:12:50.109Z,98565.30
2018-07-22T07:15:19.096Z,98563.55
2018-07-22T07:17:48.083Z,98554.26
2018-07-22T07:20:17.217Z,98554.59
2018-07-22T07:22:46.207Z,98552.52
2018-07-22T07:25:15.277Z,98549.30
2018-07-22T07:27:44.384Z,98558.17
2018-07-22T07:30:13.376Z,98552.48
2018-07-22T07:32:42.347Z,98555.17
2018-07-22T07:35:11.343Z,98551.41
2018-07-22T07:37:40.323Z,98555.32
2018-07-22T07:40:09.369Z,98548.84
2018-07-22T07:42:38.407Z,98552.28
2018-07-22T07:45:07.555Z,98546.23
2018-07-22T07:47:36.527Z,98544.74
2018-07-22T07:50:05.975Z,98545.89
2018-07-22T07:52:35.000Z,98542.93
2018-07-22T07:55:04.083Z,98548.42
2018-07-22T07:57:33.182Z,98543.85
2018-07-22T08:00:02.244Z,98547.90
2018-07-22T08:02:31.348Z,98548.11
2018-07-22T08:05:00.404Z,98545.74
2018-07-22T08:07:29.476Z,98550.02
2018-07-22T08:09:58.511Z,98546.47
2018-07-22T08:12:27.697Z,98544.91
2018-07-22T08:14:56.938Z,98549.48
2018-07-22T08:17:26.095Z,98543.41
2018-07-22T08:19:55.236Z,98545.95
2018-07-22T08:22:24.416Z,98543.02
2018-07-22T08:24:53.469Z,98546.36
2018-07-22T08:27:22.449Z,98541.02
2018-07-22T08:29:51.447Z,98533.62
2018-07-22T08:32:20.416Z,98539.82
2018-07-22T08:34:49.493Z,98536.86
2018-07-22T08:37:18.487Z,98531.88
2018-07-22T08:39:47.515Z,98531.34
2018-07-22T08:42:16.598Z,98528.86
2018-07-22T08:44:45.653Z,98525.41
2018-07-22T08:47:14.712Z,98525.49
2018-07-22T08:49:43.740Z,98518.25
2018-07-22T08:52:12.820Z,98516.45
2018-07-22T08:54:41.782Z,98507.15
2018-07-22T08:57:10.776Z,98503.58
2018-07-22T08:59:40.900Z,98498.52
2018-07-22T09:02:10.105Z,98502.16
2018-07-22T09:04:39.142Z,98500.95
2018-07-22T09:07:08.192Z,98502.18
2018-07-22T09:09:37.242Z,98505.30
2018-07-22T09:12:06.227Z,98502.33
2018-07-22T09:14:35.220Z,98495.09
2018-07-22T09:17:04.218Z,98491.11
2018-07-22T09:19:33.199Z,98493.67
2018-07-22T09:22:02.179Z,98493.28
2018-07-22T09:24:31.184Z,98491.64
2018-07-22T09:27:00.257Z,98479.84
2018-07-22T09:29:29.292Z,98477.84
2018-07-22T09:31:58.403Z,98472.17
2018-07-22T09:34:27.484Z,98470.28
2018-07-22T09:36:56.764Z,98463.66
2018-07-22T09:39:25.751Z,98464.00
2018-07-22T09:41:56.178Z,98458.33
2018-07-22T09:44:25.170Z,98455.43
2018-07-22T09:46:54.201Z,98448.17
2018-07-22T09:49:23.199Z,98443.67
2018-07-22T09:51:52.197Z,98438.08
2018-07-22T09:54:21.320Z,98445.36
2018-07-22T09:56:50.296Z,98447.47
2018-07-22T09:59:19.438Z,98441.77
2018-07-22T10:01:48.451Z,98440.11
2018-07-22T10:04:17.519Z,98440.16
2018-07-22T10:06:46.562Z,98436.25
2018-07-22T10:09:15.597Z,98430.23
2018-07-22T10:11:44.737Z,98428.55
2018-07-22T10:14:13.724Z,98419.56
2018-07-22T10:16:42.823Z,98420.94
2018-07-22T10:19:11.807Z,98415.90
2018-07-22T10:21:40.917Z,98418.52
2018-07-22T10:24:10.541Z,98416.71
2018-07-22T10:26:39.504Z,98418.93
2018-07-22T10:29:08.619Z,98419.88
2018-07-22T10:31:37.571Z,98415.59
2018-07-22T10:34:06.732Z,98418.84
2018-07-22T10:36:35.784Z,98403.30
2018-07-22T10:39:06.872Z,98405.08
2018-07-22T10:41:36.913Z,98403.29
2018-07-22T10:44:06.092Z,98390.95
2018-07-22T10:46:35.092Z,98389.25
2018-07-22T10:49:04.192Z,98390.48
2018-07-22T10:51:34.124Z,98384.07
2018-07-22T10:54:03.155Z,98388.41
2018-07-22T10:56:32.340Z,98386.53
2018-07-22T10:59:01.317Z,98380.48
2018-07-22T11:01:30.325Z,98373.85
2018-07-22T11:03:59.327Z,98371.20
2018-07-22T11:06:28.427Z,98365.04
2018-07-22T11:08:57.477Z,98358.03
2018-07-22T11:11:26.776Z,98359.66
2018-07-22T11:13:55.848Z,98352.50
2018-07-22T11:16:24.831Z,98359.29
2018-07-22T11:18:53.864Z,98349.89
2018-07-22T11:21:23.058Z,98342.27
2018-07-22T11:23:52.624Z,98335.00
2018-07-22T11:26:21.604Z,98331.02
2018-07-22T11:28:50.739Z,98330.75
2018-07-22T11:31:19.824Z,98335.30
2018-07-22T11:33:48.793Z,98332.25
2018-07-22T11:36:17.824Z,98332.80
2018-07-22T11:38:46.799Z,98332.70
2018-07-22T11:41:15.776Z,98326.48
2018-07-22T11:43:44.833Z,98325.14
2018-07-22T11:46:13.824Z,98316.36
2018-07-22T11:48:42.820Z,98323.00
2018-07-22T11:51:11.825Z,98323.42
2018-07-22T11:53:41.363Z,98317.34
2018-07-22T11:56:10.364Z,98314.23
2018-07-22T11:58:39.322Z,98308.56
2018-07-22T12:01:08.452Z,98305.23
2018-07-22T12:03:38.008Z,98308.17
2018-07-22T12:06:07.058Z,98301.13
2018-07-22T12:08:36.157Z,98298.86
2018-07-22T12:11:05.204Z,98304.47
2018-07-22T12:13:34.175Z,98302.59
2018-07-22T12:16:03.143Z,98300.63
2018-07-22T12:18:32.253Z,98304.38
2018-07-22T12:21:01.233Z,98297.17
2018-07-22T12:23:30.289Z,98299.08
2018-07-22T12:25:59.329Z,98285.17
2018-07-22T12:28:28.513Z,98287.48
2018-07-22T12:30:57.617Z,98279.13
2018-07-22T12:33:26.784Z,98275.93
2018-07-22T12:35:55.759Z,98279.94
2018-07-22T12:38:24.802Z,98278.09
2018-07-22T12:40:53.784Z,98275.98
2018-07-22T12:43:22.830Z,98271.66
2018-07-22T12:45:51.856Z,98273.98
2018-07-22T12:48:20.900Z,98273.44
2018-07-22T12:50:50.076Z,98268.95
2018-07-22T12:53:19.084Z,98271.11
2018-07-22T12:55:48.067Z,98263.58
2018-07-22T12:58:17.116Z,98264.06
2018-07-22T13:00:46.097Z,98261.05
2018-07-22T13:03:15.203Z,98262.36
2018-07-22T13:05:44.228Z,98259.11
2018-07-22T13:08:13.203Z,98258.17
2018-07-22T13:10:42.231Z,98252.91
2018-07-22T13:13:11.248Z,98256.80
2018-07-22T13:15:40.240Z,98248.77
2018-07-22T13:18:09.289Z,98247.52
2018-07-22T13:20:38.610Z,98247.48
2018-07-22T13:23:08.197Z,98245.55
2018-07-22T13:25:37.255Z,98240.57
2018-07-22T13:28:06.351Z,98236.80
2018-07-22T13:30:35.386Z,98233.66
2018-07-22T13:33:04.390Z,98235.12
2018-07-22T13:35:33.448Z,98239.05
2018-07-22T13:38:02.647Z,98239.36
2018-07-22T13:40:31.722Z,98231.72
2018-07-22T13:43:00.737Z,98232.54
2018-07-22T13:45:29.788Z,98226.34
2018-07-22T13:47:58.784Z,98233.80
2018-07-22T13:50:27.853Z,98226.42
2018-07-22T13:52:56.884Z,98227.07
2018-07-22T13:55:25.998Z,98227.07
2018-07-22T13:57:55.157Z,98222.48
2018-07-22T14:00:24.154Z,98213.45
2018-07-22T14:02:53.159Z,98207.19
2018-07-22T14:05:22.209Z,98205.66
2018-07-22T14:07:51.277Z,98207.30
2018-07-22T14:10:20.248Z,98206.99
2018-07-22T14:12:49.335Z,98200.63
2018-07-22T14:15:18.372Z,98190.44
2018-07-22T14:17:47.555Z,98185.06
2018-07-22T14:20:16.544Z,98194.33
2018-07-22T14:22:45.788Z,98189.03
2018-07-22T14:25:14.848Z,98187.90
2018-07-22T14:27:44.011Z,98178.21
2018-07-22T14:30:13.234Z,98177.48
2018-07-22T14:32:42.283Z,98177.52
2018-07-22T14:35:11.364Z,98175.78
2018-07-22T14:37:40.475Z,98160.25
2018-07-22T14:40:09.448Z,98144.47
2018-07-22T14:42:38.546Z,98138.57
2018-07-22T14:45:08.463Z,98139.46
2018-07-22T14:47:37.561Z,98141.94
2018-07-22T14:50:06.872Z,98142.86
2018-07-22T14:52:35.957Z,98144.44
2018-07-22T14:55:05.113Z,98150.83
2018-07-22T14:57:34.360Z,98160.94
2018-07-22T15:00:03.393Z,98152.85
2018-07-22T15:02:32.520Z,98152.27
2018-07-22T15:05:01.653Z,98137.52
2018-07-22T15:07:30.694Z,98132.63
2018-07-22T15:09:59.657Z,98133.05
2018-07-22T15:12:28.679Z,98135.70
2018-07-22T15:14:57.680Z,98139.20
2018-07-22T15:17:26.667Z,98125.59
2018-07-22T15:19:55.701Z,98123.43
2018-07-22T15:22:24.817Z,98127.22
2018-07-22T15:24:53.799Z,98139.84
2018-07-22T15:27:22.772Z,98129.61
2018-07-22T15:29:51.752Z,98121.77
2018-07-22T15:32:20.736Z,98132.13
2018-07-22T15:34:49.716Z,98145.97
2018-07-22T15:37:18.704Z,98151.70
2018-07-22T15:39:47.753Z,98155.53
2018-07-22T15:42:16.910Z,98142.41
2018-07-22T15:44:45.890Z,98145.97
2018-07-22T15:47:14.880Z,98142.03
2018-07-22T15:49:43.871Z,98156.63
2018-07-22T15:52:13.012Z,98158.09
2018-07-22T15:54:41.998Z,98153.12
2018-07-22T15:57:11.064Z,98159.19
2018-07-22T15:59:40.035Z,98169.50
2018-07-22T16:02:09.032Z,98179.70
2018-07-22T16:04:38.096Z,98174.91
2018-07-22T16:07:07.099Z,98179.93
2018-07-22T16:09:36.096Z,98184.72
2018-07-22T16:12:05.200Z,98187.30
2018-07-22T16:14:34.246Z,98198.56
2018-07-22T16:17:03.204Z,98196.34
2018-07-22T16:19:32.244Z,98202.16
2018-07-22T16:22:01.323Z,98204.28
2018-07-22T16:24:30.333Z,98192.30
2018-07-22T16:26:59.416Z,98173.39
2018-07-22T16:29:28.384Z,98162.09
2018-07-22T16:31:57.387Z,98154.31
2018-07-22T16:34:26.424Z,98160.42
2018-07-22T16:36:55.404Z,98157.50
2018-07-22T16:39:24.387Z,98156.47
2018-07-22T16:41:53.413Z,98151.05
2018-07-22T16:44:22.633Z,98165.98
2018-07-22T16:46:51.615Z,98157.20
2018-07-22T16:49:20.689Z,98159.88
2018-07-22T16:51:49.768Z,98154.06
2018-07-22T16:54:18.761Z,98161.54
2018-07-22T16:56:47.744Z,98174.10
2018-07-22T16:59:16.772Z,98188.96
2018-07-22T17:01:45.888Z,98201.17
2018-07-22T17:04:14.876Z,98226.38
2018-07-22T17:06:43.868Z,98254.15
2018-07-22T17:09:12.912Z,98272.23
2018-07-22T17:11:41.944Z,98278.83
2018-07-22T17:14:11.063Z,98290.56
2018-07-22T17:16:40.253Z,98289.98
2018-07-22T17:19:09.363Z,98284.23
2018-07-22T17:21:38.333Z,98281.27
2018-07-22T17:24:07.637Z,98276.25
2018-07-22T17:26:36.627Z,98279.26
2018-07-22T17:29:05.668Z,98269.89
2018-07-22T17:31:34.668Z,98254.31
2018-07-22T17:34:03.940Z,98234.89
2018-07-22T17:36:33.036Z,98226.58
2018-07-22T17:39:02.094Z,98219.32
2018-07-22T17:41:31.201Z,98224.48
2018-07-22T17:44:00.188Z,98222.45
2018-07-22T17:46:29.152Z,98212.44
2018-07-22T17:48:58.188Z,98218.91
2018-07-22T17:51:27.295Z,98219.14
2018-07-22T17:53:56.276Z,98220.50
2018-07-22T17:56:25.328Z,98241.23
2018-07-22T17:58:54.401Z,98234.59
2018-07-22T18:01:23.563Z,98237.97
2018-07-22T18:03:52.552Z,98244.73
2018-07-22T18:06:21.665Z,98246.38
2018-07-22T18:08:50.623Z,98250.72
2018-07-22T18:11:19.616Z,98262.86
2018-07-22T18:13:48.635Z,98268.91
2018-07-22T18:16:17.655Z,98264.69
2018-07-22T18:18:46.688Z,98271.87
2018-07-22T18:21:15.797Z,98280.34
2018-07-22T18:23:44.820Z,98274.17
2018-07-22T18:26:13.840Z,98272.72
2018-07-22T18:28:44.531Z,98287.82
2018-07-22T18:31:13.564Z,98290.11
2018-07-22T18:33:42.589Z,98281.02
2018-07-22T18:36:11.603Z,98273.80
2018-07-22T18:38:40.591Z,98278.98
2018-07-22T18:41:09.712Z,98282.68
2018-07-22T18:43:38.821Z,98290.78
2018-07-22T18:46:08.076Z,98294.53
2018-07-22T18:48:37.183Z,98293.66
2018-07-22T18:51:06.125Z,98302.77
2018-07-22T18:53:35.152Z,98307.80
2018-07-22T18:56:04.244Z,98322.61
2018-07-22T18:58:33.291Z,98325.86
2018-07-22T19:01:02.289Z,98311.42
2018-07-22T19:03:31.260Z,98311.09
2018-07-22T19:06:00.275Z,98320.95
2018-07-22T19:08:29.332Z,98330.84
2018-07-22T19:10:58.319Z,98318.28
2018-07-22T19:13:27.290Z,98325.31
2018-07-22T19:15:56.359Z,98327.91
2018-07-22T19:18:25.330Z,98329.70
2018-07-22T19:20:54.317Z,98327.85
2018-07-22T19:23:23.329Z,98340.72
2018-07-22T19:25:52.419Z,98322.72
2018-07-22T19:28:21.456Z,98307.13
2018-07-22T19:30:50.496Z,98317.71
2018-07-22T19:33:19.596Z,98315.80
2018-07-22T19:35:48.720Z,98311.31
2018-07-22T19:38:17.687Z,98300.95
2018-07-22T19:40:46.668Z,98310.38
2018-07-22T19:43:15.624Z,98303.45
2018-07-22T19:45:44.596Z,98295.28
2018-07-22T19:48:13.717Z,98283.45
2018-07-22T19:50:42.813Z,98267.20
2018-07-22T19:53:11.788Z,98258.80
2018-07-22T19:55:40.880Z,98266.39
2018-07-22T19:58:09.928Z,98267.94
2018-07-22T20:00:38.962Z,98268.07
2018-07-22T20:03:08.369Z,98268.07
2018-07-22T20:05:37.476Z,98266.25
2018-07-22T20:08:06.963Z,98263.16
2018-07-22T20:10:35.984Z,98259.19
2018-07-22T20:13:05.068Z,98254.56
2018-07-22T20:15:34.092Z,98250.59
2018-07-22T20:18:03.067Z,98244.48
2018-07-22T20:20:32.071Z,98243.83
2018-07-22T20:23:01.164Z,98231.27
2018-07-22T20:25:30.199Z,98226.65
2018-07-22T20:27:59.185Z,98228.41
2018-07-22T20:30:28.240Z,98229.80
2018-07-22T20:32:57.334Z,98224.64
2018-07-22T20:35:26.291Z,98233.11
2018-07-22T20:37:55.272Z,98222.82
2018-07-22T20:40:24.300Z,98218.13
2018-07-22T20:42:53.555Z,98213.57
2018-07-22T20:45:22.524Z,98210.83
2018-07-22T20:47:51.488Z,98205.86
2018-07-22T20:50:20.528Z,98209.89
2018-07-22T20:52:49.564Z,98205.11
2018-07-22T20:55:18.604Z,98206.58
2018-07-22T20:57:47.595Z,98210.55
2018-07-22T21:00:16.632Z,98209.10
2018-07-22T21:02:45.660Z,98211.30
2018-07-22T21:05:14.639Z,98216.64
2018-07-22T21:07:43.644Z,98219.50
2018-07-22T21:10:12.645Z,98220.76
2018-07-22T21:12:53.736Z,98228.91
2018-07-22T21:15:22.855Z,98220.83
2018-07-22T21:17:52.504Z,98224.34
2018-07-22T21:20:22.235Z,98216.34
2018-07-22T21:22:51.259Z,98218.89
2018-07-22T21:25:20.612Z,98201.44
2018-07-22T21:27:49.555Z,98205.90
2018-07-22T21:30:18.620Z,98202.53
2018-07-22T21:32:47.639Z,98203.92
2018-07-22T21:35:16.612Z,98199.41
2018-07-22T21:37:45.660Z,98190.00
2018-07-22T21:40:14.846Z,98189.84
2018-07-22T21:42:43.891Z,98175.84
2018-07-22T21:45:12.929Z,98176.78
2018-07-22T21:47:42.025Z,98182.72
2018-07-22T21:50:10.992Z,98183.61
2018-07-22T21:52:40.017Z,98182.89
2018-07-22T21:55:09.092Z,98188.73
2018-07-22T21:57:38.444Z,98187.58
2018-07-22T22:00:12.905Z,98195.28
2018-07-22T22:02:41.888Z,98195.37
2018-07-22T22:05:10.844Z,98195.37
2018-07-22T22:07:39.839Z,98199.63
2018-07-22T22:10:08.907Z,98200.35
2018-07-22T22:12:37.905Z,98196.98
2018-07-22T22:15:11.369Z,98207.05
2018-07-22T22:17:40.434Z,98215.32
2018-07-22T22:20:09.455Z,98234.63
2018-07-22T22:22:38.447Z,98258.56
2018-07-22T22:25:07.522Z,98284.59
2018-07-22T22:27:36.569Z,98317.27
2018-07-22T22:30:06.141Z,98323.83
2018-07-22T22:32:35.139Z,98303.08
2018-07-22T22:35:04.350Z,98309.47
2018-07-22T22:37:33.388Z,98323.03
2018-07-22T22:40:02.461Z,98330.59
2018-07-22T22:42:31.440Z,98331.37
2018-07-22T22:45:00.463Z,98331.27
2018-07-22T22:47:29.529Z,98339.94
2018-07-22T22:49:58.487Z,98343.62
2018-07-22T22:52:27.616Z,98352.11
2018-07-22T22:54:56.796Z,98356.14
2018-07-22T22:57:26.109Z,98371.19
2018-07-22T22:59:55.101Z,98384.52
2018-07-22T23:02:24.247Z,98392.39
2018-07-22T23:04:53.311Z,98404.86
2018-07-22T23:07:22.280Z,98415.16
2018-07-22T23:09:51.365Z,98428.44
2018-07-22T23:12:20.412Z,98431.52
2018-07-22T23:14:49.379Z,98440.02
2018-07-22T23:17:18.372Z,98443.36
2018-07-22T23:19:47.404Z,98441.82
2018-07-22T23:22:16.478Z,98442.81
2018-07-22T23:24:45.480Z,98444.94
2018-07-22T23:27:14.484Z,98438.67
2018-07-22T23:29:43.448Z,98446.66
2018-07-22T23:32:12.772Z,98451.47
2018-07-22T23:34:41.809Z,98446.91
2018-07-22T23:37:10.792Z,98440.03
2018-07-22T23:39:39.837Z,98441.48
2018-07-22T23:42:09.380Z,98446.86
2018-07-22T23:44:38.360Z,98441.62
2018-07-22T23:47:07.436Z,98443.52
2018-07-22T23:49:36.515Z,98449.42
2018-07-22T23:52:05.589Z,98452.67
2018-07-22T23:54:34.576Z,98455.31
2018-07-22T23:57:03.586Z,98452.29
2018-07-22T23:59:32.629Z,98459.08
